Flight Track Log - Related Links

Times and Time Zones

All times are in EDT time to prevent confusion due to time zone crossing. See the SWA1086 flight status page for this flight to view local times or setup timezone preferences in your user account.

Time Position Orientation Groundspeed Altitude Reporting Facility
EDT Latitude Longitude Course Direction KTS MPH feet Rate Location/Type
Sat 06:10:32 PM 36.0764 -115.2292 270° West 210 242 4,200  Level Los Angeles Center
Sat 06:11:07 PM 36.0864 -115.2719 286° West 238 274 5,500 2,300 Climbing Los Angeles Center
Sat 06:11:32 PM 36.1122 -115.2947 325° Northwest 255 293 6,500 2,323 Climbing Los Angeles Center
Sat 06:12:09 PM 36.1514 -115.2906 North 256 295 7,900 2,557 Climbing Los Angeles Center
Sat 06:12:33 PM 36.1708 -115.2567 55° Northeast 259 298 9,100 2,066 Climbing Los Angeles Center
Sat 06:13:10 PM 36.1881 -115.2031 68° East 270 311 10,000 1,636 Climbing Los Angeles Center
Sat 06:14:12 PM 36.1967 -115.0889 85° East 341 392 11,800 2,032 Climbing Los Angeles Center
Sat 06:15:14 PM 36.1986 -114.9658 89° East 354 407 14,200 2,081 Climbing Los Angeles Center
Sat 06:16:16 PM 36.1986 -114.8406 90° East 374 430 16,100 1,839 Climbing Los Angeles Center
Sat 06:17:18 PM 36.1992 -114.7028 90° East 397 457 18,000 2,081 Climbing Los Angeles Center
Sat 06:18:20 PM 36.1953 -114.5319 92° East 409 471 20,400 2,032 Climbing Los Angeles Center
Sat 06:19:22 PM 36.1942 -114.3858 90° East 422 486 22,200 1,645 Climbing Los Angeles Center
Sat 06:20:24 PM 36.1931 -114.2344 90° East 436 502 23,800 1,452 Climbing Los Angeles Center
Sat 06:21:26 PM 36.2117 -114.0817 81° East 445 512 25,200 1,306 Climbing Los Angeles Center
Sat 06:22:28 PM 36.2314 -113.9228 81° East 461 531 26,500 1,355 Climbing Los Angeles Center
Sat 06:23:30 PM 36.2492 -113.7614 82° East 469 540 28,000 1,403 Climbing Los Angeles Center
Sat 06:24:32 PM 36.2719 -113.5642 82° East 478 550 29,400 1,452 Climbing Los Angeles Center
Sat 06:25:34 PM 36.2922 -113.3961 81° East 488 562 31,000 1,500 Climbing Los Angeles Center
Sat 06:26:36 PM 36.3142 -113.2286 81° East 486 559 32,500 1,317 Climbing Los Angeles Center
Sat 06:27:37 PM 36.3672 -113.0764 67° East 486 559 33,700 1,122 Climbing Los Angeles Center
Sat 06:28:39 PM 36.4233 -112.9261 65° Northeast 484 557 34,800 629 Climbing Los Angeles Center
Sat 06:29:41 PM 36.4786 -112.7747 66° East 484 557 35,000 484 Climbing Los Angeles Center
Sat 06:30:43 PM 36.5347 -112.6203 66° East 488 562 35,800 871 Climbing Los Angeles Center
Sat 06:31:45 PM 36.6011 -112.4406 65° Northeast 487 560 36,800 581 Climbing Los Angeles Center
Sat 06:32:47 PM 36.6558 -112.2903 66° East 482 555 37,000 97 Climbing Los Angeles Center
Sat 06:33:49 PM 36.7106 -112.1403 65° Northeast 481 554 37,000  Level Los Angeles Center
Sat 06:34:50 PM 36.7647 -111.9889 66° East 481 554 37,000  Level Los Angeles Center
Sat 06:35:52 PM 36.8183 -111.8378 66° East 481 554 37,000  Level Los Angeles Center
Sat 06:36:54 PM 36.8744 -111.6844 65° Northeast 484 557 37,000  Level Los Angeles Center
Sat 06:37:30 PM 36.9069 -111.5933 66° East 483 556 37,000  Level Denver Center
Sat 06:38:31 PM 36.9714 -111.4097 66° East 483 556 37,000  Level Denver Center
Sat 06:39:33 PM 37.0250 -111.2561 66° East 484 557 37,000  Level Denver Center
Sat 06:40:35 PM 37.0781 -111.1014 67° East 486 559 37,000  Level Denver Center
Sat 06:41:36 PM 37.1319 -110.9469 66° East 486 559 37,000  Level Denver Center
Sat 06:42:38 PM 37.1856 -110.7914 67° East 487 560 37,000  Level Denver Center
Sat 06:43:40 PM 37.2403 -110.6361 66° East 487 560 37,000  Level Denver Center
Sat 06:44:41 PM 37.2925 -110.4811 67° East 486 559 37,000  Level Denver Center
Sat 06:45:43 PM 37.3567 -110.2939 67° East 487 560 37,000  Level Denver Center
Sat 06:46:45 PM 37.4111 -110.1339 67° East 487 560 37,000  Level Denver Center
Sat 06:47:46 PM 37.4606 -109.9833 67° East 487 560 37,000  Level Denver Center
Sat 06:48:48 PM 37.5122 -109.8314 67° East 487 560 37,000  Level Denver Center
Sat 06:49:49 PM 37.5714 -109.6544 67° East 489 563 37,000  Level Denver Center
Sat 06:50:51 PM 37.6222 -109.5028 67° East 489 563 37,000  Level Denver Center
Sat 06:51:52 PM 37.6797 -109.3253 68° East 489 563 37,000  Level Denver Center
Sat 06:52:54 PM 37.7292 -109.1744 67° East 488 562 37,000  Level Denver Center
Sat 06:53:55 PM 37.7792 -109.0222 67° East 489 563 37,000  Level Denver Center
Sat 06:54:57 PM 37.8475 -108.8514 63° Northeast 489 563 37,000  Level Denver Center
Sat 06:55:58 PM 37.9150 -108.7128 58° Northeast 488 562 37,000  Level Denver Center
Sat 06:57:00 PM 37.9944 -108.5492 58° Northeast 487 560 37,000  Level Denver Center
Sat 06:58:01 PM 38.0617 -108.4097 58° Northeast 487 560 37,000  Level Denver Center
Sat 06:59:03 PM 38.1325 -108.2608 59° Northeast 487 560 37,000  Level Denver Center
Sat 07:00:04 PM 38.2036 -108.1175 58° Northeast 485 558 37,000  Level Denver Center
Sat 07:01:06 PM 38.2725 -107.9706 59° Northeast 485 558 37,000  Level Denver Center
Sat 07:02:07 PM 38.3425 -107.8264 58° Northeast 485 558 37,000  Level Denver Center
Sat 07:03:08 PM 38.4122 -107.6778 59° Northeast 486 559 37,000 -244 Level Denver Center
Sat 07:04:10 PM 38.4956 -107.5000 59° Northeast 487 560 36,500 -732 Descending Denver Center
Sat 07:05:11 PM 38.5606 -107.3525 61° Northeast 485 558 35,500 -934 Descending Denver Center
Sat 07:06:12 PM 38.6258 -107.2056 60° Northeast 483 556 34,600 -878 Descending Denver Center
Sat 07:07:14 PM 38.6969 -107.0464 60° Northeast 485 558 33,700 -927 Descending Denver Center
Sat 07:08:15 PM 38.7639 -106.8933 61° Northeast 492 566 32,700 -976 Descending Denver Center
Sat 07:09:17 PM 38.8294 -106.7450 60° Northeast 486 559 31,700 -927 Descending Denver Center
Sat 07:10:18 PM 38.8908 -106.6069 60° Northeast 480 552 30,800 -984 Descending Denver Center
Sat 07:11:19 PM 38.9714 -106.4361 59° Northeast 472 543 29,700 -927 Descending Denver Center
Sat 07:12:21 PM 39.0389 -106.2872 60° Northeast 476 548 28,900 -829 Descending Denver Center
Sat 07:13:22 PM 39.0961 -106.1594 60° Northeast 481 554 28,000 -1,377 Descending Denver Center
Sat 07:14:23 PM 39.1722 -105.9847 61° Northeast 472 543 26,100 -1,463 Descending Denver Center
Sat 07:15:25 PM 39.2303 -105.8428 62° Northeast 455 524 25,000 -537 Descending Denver Center
Sat 07:16:26 PM 39.2761 -105.6967 68° East 444 511 25,000 -1,131 Level Denver Center
Sat 07:17:27 PM 39.3250 -105.5450 67° East 453 521 22,700 -1,951 Descending Denver Center
Sat 07:18:29 PM 39.3544 -105.3892 76° East 428 493 21,000 -1,707 Descending Denver Center
Sat 07:19:30 PM 39.3639 -105.2500 85° East 385 443 19,200 -1,770 Descending Denver Center
Sat 07:20:31 PM 39.3675 -105.1183 88° East 373 429 17,400 -1,951 Descending Denver Center
Sat 07:21:33 PM 39.3714 -104.9867 88° East 347 399 15,200 -2,098 Descending Denver Center
Sat 07:22:34 PM 39.4061 -104.8797 67° East 341 392 13,100 -1,918 Descending Denver Center
Sat 07:23:35 PM 39.4614 -104.7878 52° Northeast 331 381 11,300 -1,415 Descending Denver Center
Sat 07:24:37 PM 39.5319 -104.7169 38° Northeast 297 342 10,200 -976 Descending Denver Center
Sat 07:25:38 PM 39.5944 -104.6633 33° Northeast 274 315 9,300 -836 Descending Denver Center
Sat 07:26:39 PM 39.6608 -104.6628 360° North 242 278 8,500 -976 Descending Denver Center
Sat 07:27:41 PM 39.7300 -104.6614 North 233 268 7,300 -1,122 Descending Denver Center
Sat 07:28:42 PM 39.7850 -104.6611 360° North 199 229 6,200 -878 Descending Denver Center
Sat 07:29:44 PM 39.8281 -104.6608 360° North 160 184 5,500 -677 Descending Denver Center
Sat 07:31:00 PM 39.8617 -104.6732 357° North  Level Estimated

Login

Don't have an account? Register now (free) for customized features, flight alerts, and more!